Terminal Aerodrome Forecast
Issued by NWS Duluth, MN

Home | Current Version | Previous Version | Text Only | Print | Product List | Glossary On
Versions: 1 2 3 4 5 6 7 8 9 10 11 12 13 14 15 16 17
647
FTUS43 KDLH 180537
TAFDLH
TAF
KDLH 180537Z 1806/1906 26012KT P6SM SCT250
     FM180900 25010KT P6SM BKN150 WS015/29045KT
     FM181200 27010KT P6SM VCSH BKN035
     FM181700 28010G17KT P6SM SCT040
     FM190000 27005KT P6SM BKN200=

USA.gov is the U.S. government's official web portal to all federal, state and local government web resources and services.